sensor_id;sensor_type;location;lat;lon;timestamp;P1;durP1;ratioP1;P2;durP2;ratioP2
14738;SDS011;7461;52.440;13.540;2023-01-24T00:02:20;26.58;;;24.15;;
14738;SDS011;7461;52.440;13.540;2023-01-24T00:04:47;26.40;;;23.92;;
14738;SDS011;7461;52.440;13.540;2023-01-24T00:07:15;26.95;;;24.50;;
14738;SDS011;7461;52.440;13.540;2023-01-24T00:09:42;26.33;;;23.92;;
14738;SDS011;7461;52.440;13.540;2023-01-24T00:12:09;26.15;;;23.65;;
14738;SDS011;7461;52.440;13.540;2023-01-24T00:14:36;23.83;;;21.60;;
14738;SDS011;7461;52.440;13.540;2023-01-24T00:17:04;26.02;;;23.85;;
14738;SDS011;7461;52.440;13.540;2023-01-24T00:19:34;28.38;;;25.75;;
14738;SDS011;7461;52.440;13.540;2023-01-24T00:22:01;26.40;;;24.00;;
14738;SDS011;7461;52.440;13.540;2023-01-24T00:24:32;28.55;;;25.52;;
14738;SDS011;7461;52.440;13.540;2023-01-24T00:27:00;29.52;;;26.45;;
14738;SDS011;7461;52.440;13.540;2023-01-24T00:29:27;29.92;;;26.58;;
14738;SDS011;7461;52.440;13.540;2023-01-24T00:31:54;28.45;;;25.42;;
14738;SDS011;7461;52.440;13.540;2023-01-24T00:34:21;28.15;;;25.17;;
14738;SDS011;7461;52.440;13.540;2023-01-24T00:36:50;29.77;;;24.40;;
14738;SDS011;7461;52.440;13.540;2023-01-24T00:39:17;26.88;;;24.52;;
14738;SDS011;7461;52.440;13.540;2023-01-24T00:41:45;24.70;;;22.33;;
14738;SDS011;7461;52.440;13.540;2023-01-24T00:44:12;28.55;;;24.45;;
14738;SDS011;7461;52.440;13.540;2023-01-24T00:46:39;28.98;;;26.20;;
14738;SDS011;7461;52.440;13.540;2023-01-24T00:49:07;28.45;;;25.80;;
14738;SDS011;7461;52.440;13.540;2023-01-24T00:51:34;27.25;;;24.45;;
14738;SDS011;7461;52.440;13.540;2023-01-24T00:54:02;30.13;;;25.92;;
14738;SDS011;7461;52.440;13.540;2023-01-24T00:56:30;31.90;;;28.25;;
14738;SDS011;7461;52.440;13.540;2023-01-24T00:58:57;30.13;;;26.08;;
14738;SDS011;7461;52.440;13.540;2023-01-24T01:01:24;31.17;;;27.92;;
14738;SDS011;7461;52.440;13.540;2023-01-24T01:03:53;28.15;;;25.17;;
14738;SDS011;7461;52.440;13.540;2023-01-24T01:06:21;30.58;;;27.05;;
14738;SDS011;7461;52.440;13.540;2023-01-24T01:08:49;32.47;;;28.67;;
14738;SDS011;7461;52.440;13.540;2023-01-24T01:11:18;29.25;;;26.27;;
14738;SDS011;7461;52.440;13.540;2023-01-24T01:13:45;28.63;;;25.45;;
14738;SDS011;7461;52.440;13.540;2023-01-24T01:16:16;30.38;;;27.48;;
14738;SDS011;7461;52.440;13.540;2023-01-24T01:18:45;28.23;;;25.23;;
14738;SDS011;7461;52.440;13.540;2023-01-24T01:21:14;31.00;;;27.23;;
14738;SDS011;7461;52.440;13.540;2023-01-24T01:23:42;29.33;;;26.55;;
14738;SDS011;7461;52.440;13.540;2023-01-24T01:26:12;31.45;;;28.30;;
14738;SDS011;7461;52.440;13.540;2023-01-24T01:28:41;32.00;;;28.67;;
14738;SDS011;7461;52.440;13.540;2023-01-24T01:31:08;28.00;;;24.38;;
14738;SDS011;7461;52.440;13.540;2023-01-24T01:33:36;30.00;;;26.90;;
14738;SDS011;7461;52.440;13.540;2023-01-24T01:36:03;27.67;;;24.85;;
14738;SDS011;7461;52.440;13.540;2023-01-24T01:38:31;29.52;;;26.13;;
14738;SDS011;7461;52.440;13.540;2023-01-24T01:40:58;28.48;;;25.70;;
14738;SDS011;7461;52.440;13.540;2023-01-24T01:43:26;27.55;;;25.08;;
14738;SDS011;7461;52.440;13.540;2023-01-24T01:45:58;25.50;;;23.30;;
14738;SDS011;7461;52.440;13.540;2023-01-24T01:48:29;24.73;;;22.30;;
14738;SDS011;7461;52.440;13.540;2023-01-24T01:51:00;23.10;;;20.73;;
14738;SDS011;7461;52.440;13.540;2023-01-24T01:53:31;24.58;;;22.60;;
14738;SDS011;7461;52.440;13.540;2023-01-24T01:56:00;23.70;;;21.60;;
14738;SDS011;7461;52.440;13.540;2023-01-24T01:58:27;22.55;;;20.35;;
14738;SDS011;7461;52.440;13.540;2023-01-24T02:00:55;22.55;;;20.60;;
14738;SDS011;7461;52.440;13.540;2023-01-24T02:03:25;20.85;;;19.13;;
14738;SDS011;7461;52.440;13.540;2023-01-24T02:06:06;20.50;;;18.38;;
14738;SDS011;7461;52.440;13.540;2023-01-24T02:08:34;19.58;;;17.58;;
14738;SDS011;7461;52.440;13.540;2023-01-24T02:11:01;17.63;;;16.13;;
14738;SDS011;7461;52.440;13.540;2023-01-24T02:13:46;17.88;;;16.48;;
14738;SDS011;7461;52.440;13.540;2023-01-24T02:16:14;18.23;;;16.83;;
14738;SDS011;7461;52.440;13.540;2023-01-24T02:18:42;17.48;;;16.08;;
14738;SDS011;7461;52.440;13.540;2023-01-24T02:21:11;17.30;;;15.57;;
14738;SDS011;7461;52.440;13.540;2023-01-24T02:23:41;16.95;;;15.52;;
14738;SDS011;7461;52.440;13.540;2023-01-24T02:26:12;17.38;;;15.88;;
14738;SDS011;7461;52.440;13.540;2023-01-24T02:28:40;17.92;;;16.38;;
14738;SDS011;7461;52.440;13.540;2023-01-24T02:31:10;16.27;;;14.77;;
14738;SDS011;7461;52.440;13.540;2023-01-24T02:33:37;19.15;;;17.50;;
14738;SDS011;7461;52.440;13.540;2023-01-24T02:36:11;17.13;;;15.68;;
14738;SDS011;7461;52.440;13.540;2023-01-24T02:38:39;15.77;;;14.52;;
14738;SDS011;7461;52.440;13.540;2023-01-24T02:41:09;15.13;;;13.95;;
14738;SDS011;7461;52.440;13.540;2023-01-24T02:43:39;15.63;;;14.13;;
14738;SDS011;7461;52.440;13.540;2023-01-24T02:46:07;17.55;;;16.15;;
14738;SDS011;7461;52.440;13.540;2023-01-24T02:48:34;17.23;;;15.75;;
14738;SDS011;7461;52.440;13.540;2023-01-24T02:51:02;15.90;;;14.63;;
14738;SDS011;7461;52.440;13.540;2023-01-24T02:53:46;17.67;;;16.38;;
14738;SDS011;7461;52.440;13.540;2023-01-24T02:56:14;16.17;;;14.88;;
14738;SDS011;7461;52.440;13.540;2023-01-24T02:59:00;15.63;;;14.43;;
14738;SDS011;7461;52.440;13.540;2023-01-24T03:01:27;15.50;;;14.10;;
14738;SDS011;7461;52.440;13.540;2023-01-24T03:03:56;15.77;;;14.52;;
14738;SDS011;7461;52.440;13.540;2023-01-24T03:06:24;14.57;;;13.40;;
14738;SDS011;7461;52.440;13.540;2023-01-24T03:08:51;16.08;;;14.77;;
14738;SDS011;7461;52.440;13.540;2023-01-24T03:11:18;17.83;;;16.33;;
14738;SDS011;7461;52.440;13.540;2023-01-24T03:13:46;17.38;;;15.68;;
14738;SDS011;7461;52.440;13.540;2023-01-24T03:16:32;17.00;;;15.45;;
14738;SDS011;7461;52.440;13.540;2023-01-24T03:19:17;16.92;;;15.63;;
14738;SDS011;7461;52.440;13.540;2023-01-24T03:22:01;15.75;;;14.20;;
14738;SDS011;7461;52.440;13.540;2023-01-24T03:24:46;15.25;;;13.95;;
14738;SDS011;7461;52.440;13.540;2023-01-24T03:27:31;14.25;;;13.07;;
14738;SDS011;7461;52.440;13.540;2023-01-24T03:30:16;14.73;;;13.57;;
14738;SDS011;7461;52.440;13.540;2023-01-24T03:33:02;17.23;;;15.88;;
14738;SDS011;7461;52.440;13.540;2023-01-24T03:35:47;15.32;;;13.90;;
14738;SDS011;7461;52.440;13.540;2023-01-24T03:38:19;16.67;;;15.35;;
14738;SDS011;7461;52.440;13.540;2023-01-24T03:41:04;17.65;;;16.05;;
14738;SDS011;7461;52.440;13.540;2023-01-24T03:43:32;15.75;;;14.52;;
14738;SDS011;7461;52.440;13.540;2023-01-24T03:45:59;16.88;;;15.52;;
14738;SDS011;7461;52.440;13.540;2023-01-24T03:48:28;18.30;;;16.60;;
14738;SDS011;7461;52.440;13.540;2023-01-24T03:50:59;16.73;;;15.32;;
14738;SDS011;7461;52.440;13.540;2023-01-24T03:53:44;17.55;;;16.13;;
14738;SDS011;7461;52.440;13.540;2023-01-24T03:56:11;16.50;;;15.13;;
14738;SDS011;7461;52.440;13.540;2023-01-24T03:58:39;16.65;;;15.20;;
14738;SDS011;7461;52.440;13.540;2023-01-24T04:01:08;16.38;;;15.00;;
14738;SDS011;7461;52.440;13.540;2023-01-24T04:03:37;17.42;;;15.85;;
14738;SDS011;7461;52.440;13.540;2023-01-24T04:06:04;15.43;;;14.18;;
14738;SDS011;7461;52.440;13.540;2023-01-24T04:08:32;16.33;;;14.93;;
14738;SDS011;7461;52.440;13.540;2023-01-24T04:10:59;18.45;;;16.92;;
14738;SDS011;7461;52.440;13.540;2023-01-24T04:13:26;16.85;;;15.45;;
14738;SDS011;7461;52.440;13.540;2023-01-24T04:15:53;18.38;;;16.70;;
14738;SDS011;7461;52.440;13.540;2023-01-24T04:18:21;18.10;;;16.70;;
14738;SDS011;7461;52.440;13.540;2023-01-24T04:20:49;14.25;;;13.15;;
14738;SDS011;7461;52.440;13.540;2023-01-24T04:23:17;17.20;;;15.70;;
14738;SDS011;7461;52.440;13.540;2023-01-24T04:25:48;15.25;;;13.95;;
14738;SDS011;7461;52.440;13.540;2023-01-24T04:28:19;16.02;;;14.82;;
14738;SDS011;7461;52.440;13.540;2023-01-24T04:30:46;16.45;;;15.00;;
14738;SDS011;7461;52.440;13.540;2023-01-24T04:33:13;16.52;;;14.88;;
14738;SDS011;7461;52.440;13.540;2023-01-24T04:35:41;17.60;;;16.02;;
14738;SDS011;7461;52.440;13.540;2023-01-24T04:38:10;17.73;;;15.88;;
14738;SDS011;7461;52.440;13.540;2023-01-24T04:40:37;17.38;;;15.98;;
14738;SDS011;7461;52.440;13.540;2023-01-24T04:43:05;15.75;;;14.60;;
14738;SDS011;7461;52.440;13.540;2023-01-24T04:45:32;17.35;;;15.93;;
14738;SDS011;7461;52.440;13.540;2023-01-24T04:48:00;17.30;;;15.82;;
14738;SDS011;7461;52.440;13.540;2023-01-24T04:50:27;18.85;;;17.00;;
14738;SDS011;7461;52.440;13.540;2023-01-24T04:52:54;19.40;;;17.75;;
14738;SDS011;7461;52.440;13.540;2023-01-24T04:55:23;16.33;;;14.93;;
14738;SDS011;7461;52.440;13.540;2023-01-24T04:57:50;16.67;;;15.38;;
14738;SDS011;7461;52.440;13.540;2023-01-24T05:00:17;18.80;;;17.27;;
14738;SDS011;7461;52.440;13.540;2023-01-24T05:02:45;19.80;;;18.00;;
14738;SDS011;7461;52.440;13.540;2023-01-24T05:05:12;18.90;;;17.27;;
14738;SDS011;7461;52.440;13.540;2023-01-24T05:07:39;19.67;;;17.90;;
14738;SDS011;7461;52.440;13.540;2023-01-24T05:10:07;21.65;;;19.60;;
14738;SDS011;7461;52.440;13.540;2023-01-24T05:12:36;18.92;;;17.33;;
14738;SDS011;7461;52.440;13.540;2023-01-24T05:15:04;20.33;;;18.50;;
14738;SDS011;7461;52.440;13.540;2023-01-24T05:17:31;19.02;;;17.40;;
14738;SDS011;7461;52.440;13.540;2023-01-24T05:20:01;22.48;;;20.30;;
14738;SDS011;7461;52.440;13.540;2023-01-24T05:22:28;19.80;;;18.17;;
14738;SDS011;7461;52.440;13.540;2023-01-24T05:24:56;19.45;;;17.58;;
14738;SDS011;7461;52.440;13.540;2023-01-24T05:27:23;20.52;;;18.55;;
14738;SDS011;7461;52.440;13.540;2023-01-24T05:29:51;19.67;;;18.10;;
14738;SDS011;7461;52.440;13.540;2023-01-24T05:32:19;24.65;;;18.23;;
14738;SDS011;7461;52.440;13.540;2023-01-24T05:34:46;20.73;;;18.65;;
14738;SDS011;7461;52.440;13.540;2023-01-24T05:37:13;19.90;;;18.08;;
14738;SDS011;7461;52.440;13.540;2023-01-24T05:39:40;20.88;;;18.75;;
14738;SDS011;7461;52.440;13.540;2023-01-24T05:42:08;21.73;;;19.52;;
14738;SDS011;7461;52.440;13.540;2023-01-24T05:44:35;20.55;;;18.75;;
14738;SDS011;7461;52.440;13.540;2023-01-24T05:47:03;23.27;;;20.92;;
14738;SDS011;7461;52.440;13.540;2023-01-24T05:49:31;21.55;;;19.33;;
14738;SDS011;7461;52.440;13.540;2023-01-24T05:51:58;22.38;;;19.65;;
14738;SDS011;7461;52.440;13.540;2023-01-24T05:54:26;24.35;;;21.73;;
14738;SDS011;7461;52.440;13.540;2023-01-24T05:56:53;27.98;;;22.55;;
14738;SDS011;7461;52.440;13.540;2023-01-24T05:59:20;27.55;;;21.88;;
14738;SDS011;7461;52.440;13.540;2023-01-24T06:01:48;22.23;;;20.15;;
14738;SDS011;7461;52.440;13.540;2023-01-24T06:04:16;21.73;;;19.48;;
14738;SDS011;7461;52.440;13.540;2023-01-24T06:06:44;25.17;;;21.45;;
14738;SDS011;7461;52.440;13.540;2023-01-24T06:09:11;25.13;;;21.58;;
14738;SDS011;7461;52.440;13.540;2023-01-24T06:11:38;26.33;;;21.85;;
14738;SDS011;7461;52.440;13.540;2023-01-24T06:14:05;26.50;;;21.83;;
14738;SDS011;7461;52.440;13.540;2023-01-24T06:16:33;34.60;;;24.83;;
14738;SDS011;7461;52.440;13.540;2023-01-24T06:19:00;30.65;;;23.08;;
14738;SDS011;7461;52.440;13.540;2023-01-24T06:21:43;28.13;;;23.08;;
14738;SDS011;7461;52.440;13.540;2023-01-24T06:24:14;32.63;;;22.25;;
14738;SDS011;7461;52.440;13.540;2023-01-24T06:26:42;29.02;;;22.48;;
14738;SDS011;7461;52.440;13.540;2023-01-24T06:29:10;30.30;;;22.98;;
14738;SDS011;7461;52.440;13.540;2023-01-24T06:31:38;30.50;;;23.90;;
14738;SDS011;7461;52.440;13.540;2023-01-24T06:34:23;26.75;;;21.92;;
14738;SDS011;7461;52.440;13.540;2023-01-24T06:36:58;30.52;;;26.92;;
14738;SDS011;7461;52.440;13.540;2023-01-24T06:39:29;29.70;;;23.88;;
14738;SDS011;7461;52.440;13.540;2023-01-24T06:41:56;34.92;;;24.83;;
14738;SDS011;7461;52.440;13.540;2023-01-24T06:44:24;35.90;;;23.98;;
14738;SDS011;7461;52.440;13.540;2023-01-24T06:46:51;31.48;;;23.75;;
14738;SDS011;7461;52.440;13.540;2023-01-24T06:49:19;32.10;;;24.00;;
14738;SDS011;7461;52.440;13.540;2023-01-24T06:51:48;34.75;;;26.67;;
14738;SDS011;7461;52.440;13.540;2023-01-24T06:54:17;37.30;;;26.23;;
14738;SDS011;7461;52.440;13.540;2023-01-24T06:56:45;46.15;;;28.10;;
14738;SDS011;7461;52.440;13.540;2023-01-24T06:59:12;37.03;;;27.58;;
14738;SDS011;7461;52.440;13.540;2023-01-24T07:01:39;36.05;;;26.33;;
14738;SDS011;7461;52.440;13.540;2023-01-24T07:04:08;32.63;;;26.42;;
14738;SDS011;7461;52.440;13.540;2023-01-24T07:06:35;37.17;;;28.45;;
14738;SDS011;7461;52.440;13.540;2023-01-24T07:09:03;36.70;;;25.67;;
14738;SDS011;7461;52.440;13.540;2023-01-24T07:11:32;40.53;;;28.02;;
14738;SDS011;7461;52.440;13.540;2023-01-24T07:13:59;43.83;;;30.77;;
14738;SDS011;7461;52.440;13.540;2023-01-24T07:16:26;40.08;;;29.42;;
14738;SDS011;7461;52.440;13.540;2023-01-24T07:18:54;44.42;;;30.65;;
14738;SDS011;7461;52.440;13.540;2023-01-24T07:21:22;41.03;;;30.23;;
14738;SDS011;7461;52.440;13.540;2023-01-24T07:23:49;46.53;;;31.05;;
14738;SDS011;7461;52.440;13.540;2023-01-24T07:26:17;43.53;;;32.20;;
14738;SDS011;7461;52.440;13.540;2023-01-24T07:28:46;45.92;;;33.67;;
14738;SDS011;7461;52.440;13.540;2023-01-24T07:31:13;47.90;;;31.75;;
14738;SDS011;7461;52.440;13.540;2023-01-24T07:33:41;43.15;;;31.08;;
14738;SDS011;7461;52.440;13.540;2023-01-24T07:36:12;47.92;;;29.60;;
14738;SDS011;7461;52.440;13.540;2023-01-24T07:38:39;46.60;;;33.03;;
14738;SDS011;7461;52.440;13.540;2023-01-24T07:41:07;39.47;;;29.00;;
14738;SDS011;7461;52.440;13.540;2023-01-24T07:43:34;44.80;;;31.52;;
14738;SDS011;7461;52.440;13.540;2023-01-24T07:46:03;43.03;;;31.10;;
14738;SDS011;7461;52.440;13.540;2023-01-24T07:48:30;50.45;;;27.98;;
14738;SDS011;7461;52.440;13.540;2023-01-24T07:50:58;43.67;;;30.63;;
14738;SDS011;7461;52.440;13.540;2023-01-24T07:53:25;43.25;;;30.92;;
14738;SDS011;7461;52.440;13.540;2023-01-24T07:55:53;44.30;;;30.35;;
14738;SDS011;7461;52.440;13.540;2023-01-24T07:58:20;51.45;;;32.97;;
14738;SDS011;7461;52.440;13.540;2023-01-24T08:00:47;56.35;;;32.17;;
14738;SDS011;7461;52.440;13.540;2023-01-24T08:03:16;49.67;;;34.75;;
14738;SDS011;7461;52.440;13.540;2023-01-24T08:05:44;52.15;;;33.83;;
14738;SDS011;7461;52.440;13.540;2023-01-24T08:08:11;44.03;;;31.35;;
14738;SDS011;7461;52.440;13.540;2023-01-24T08:10:38;51.30;;;34.22;;
14738;SDS011;7461;52.440;13.540;2023-01-24T08:13:05;53.35;;;34.13;;
14738;SDS011;7461;52.440;13.540;2023-01-24T08:15:33;54.60;;;34.67;;
14738;SDS011;7461;52.440;13.540;2023-01-24T08:18:01;56.28;;;37.75;;
14738;SDS011;7461;52.440;13.540;2023-01-24T08:20:29;47.97;;;34.22;;
14738;SDS011;7461;52.440;13.540;2023-01-24T08:22:57;46.70;;;35.35;;
14738;SDS011;7461;52.440;13.540;2023-01-24T08:25:24;46.00;;;35.22;;
14738;SDS011;7461;52.440;13.540;2023-01-24T08:27:52;57.28;;;36.47;;
14738;SDS011;7461;52.440;13.540;2023-01-24T08:30:19;55.22;;;37.92;;
14738;SDS011;7461;52.440;13.540;2023-01-24T08:32:46;58.33;;;37.25;;
14738;SDS011;7461;52.440;13.540;2023-01-24T08:35:14;52.80;;;38.20;;
14738;SDS011;7461;52.440;13.540;2023-01-24T08:37:42;42.83;;;34.00;;
14738;SDS011;7461;52.440;13.540;2023-01-24T08:40:10;45.58;;;31.80;;
14738;SDS011;7461;52.440;13.540;2023-01-24T08:42:38;53.85;;;35.03;;
14738;SDS011;7461;52.440;13.540;2023-01-24T08:45:05;51.15;;;37.03;;
14738;SDS011;7461;52.440;13.540;2023-01-24T08:47:33;53.30;;;34.05;;
14738;SDS011;7461;52.440;13.540;2023-01-24T08:50:00;42.28;;;32.03;;
14738;SDS011;7461;52.440;13.540;2023-01-24T08:52:27;45.55;;;33.97;;
14738;SDS011;7461;52.440;13.540;2023-01-24T08:54:56;51.92;;;35.47;;
14738;SDS011;7461;52.440;13.540;2023-01-24T08:57:23;46.53;;;32.25;;
14738;SDS011;7461;52.440;13.540;2023-01-24T08:59:50;48.20;;;35.90;;
14738;SDS011;7461;52.440;13.540;2023-01-24T09:02:18;46.22;;;32.17;;
14738;SDS011;7461;52.440;13.540;2023-01-24T09:04:45;44.78;;;33.88;;
14738;SDS011;7461;52.440;13.540;2023-01-24T09:07:13;49.92;;;34.85;;
14738;SDS011;7461;52.440;13.540;2023-01-24T09:09:40;39.20;;;30.02;;
14738;SDS011;7461;52.440;13.540;2023-01-24T09:12:08;52.88;;;34.42;;
14738;SDS011;7461;52.440;13.540;2023-01-24T09:14:36;46.05;;;34.58;;
14738;SDS011;7461;52.440;13.540;2023-01-24T09:17:03;50.38;;;32.95;;
14738;SDS011;7461;52.440;13.540;2023-01-24T09:19:30;41.60;;;33.33;;
14738;SDS011;7461;52.440;13.540;2023-01-24T09:21:57;43.17;;;34.38;;
14738;SDS011;7461;52.440;13.540;2023-01-24T09:24:24;52.22;;;35.58;;
14738;SDS011;7461;52.440;13.540;2023-01-24T09:26:52;42.17;;;33.65;;
14738;SDS011;7461;52.440;13.540;2023-01-24T09:29:20;41.92;;;36.38;;
14738;SDS011;7461;52.440;13.540;2023-01-24T09:31:48;44.38;;;33.33;;
14738;SDS011;7461;52.440;13.540;2023-01-24T09:34:16;39.58;;;33.60;;
14738;SDS011;7461;52.440;13.540;2023-01-24T09:36:43;37.95;;;33.22;;
14738;SDS011;7461;52.440;13.540;2023-01-24T09:39:14;45.50;;;35.33;;
14738;SDS011;7461;52.440;13.540;2023-01-24T09:41:44;39.47;;;33.20;;
14738;SDS011;7461;52.440;13.540;2023-01-24T09:44:16;40.22;;;33.85;;
14738;SDS011;7461;52.440;13.540;2023-01-24T09:46:49;34.25;;;30.52;;
14738;SDS011;7461;52.440;13.540;2023-01-24T09:49:20;42.80;;;34.20;;
14738;SDS011;7461;52.440;13.540;2023-01-24T09:51:49;34.47;;;30.80;;
14738;SDS011;7461;52.440;13.540;2023-01-24T09:54:24;41.58;;;34.83;;
14738;SDS011;7461;52.440;13.540;2023-01-24T09:56:54;42.33;;;36.00;;
14738;SDS011;7461;52.440;13.540;2023-01-24T09:59:23;42.00;;;33.50;;
14738;SDS011;7461;52.440;13.540;2023-01-24T10:01:53;42.10;;;32.58;;
14738;SDS011;7461;52.440;13.540;2023-01-24T10:04:21;40.63;;;32.28;;
14738;SDS011;7461;52.440;13.540;2023-01-24T10:07:05;36.25;;;32.35;;
14738;SDS011;7461;52.440;13.540;2023-01-24T10:09:47;41.33;;;34.38;;
14738;SDS011;7461;52.440;13.540;2023-01-24T10:12:22;43.25;;;34.28;;
14738;SDS011;7461;52.440;13.540;2023-01-24T10:14:55;35.47;;;31.90;;
14738;SDS011;7461;52.440;13.540;2023-01-24T10:17:30;40.28;;;33.88;;
14738;SDS011;7461;52.440;13.540;2023-01-24T10:20:07;37.60;;;33.20;;
14738;SDS011;7461;52.440;13.540;2023-01-24T10:22:46;35.85;;;32.25;;
14738;SDS011;7461;52.440;13.540;2023-01-24T10:25:16;38.13;;;32.03;;
14738;SDS011;7461;52.440;13.540;2023-01-24T10:27:46;38.40;;;34.40;;
14738;SDS011;7461;52.440;13.540;2023-01-24T10:30:14;34.63;;;30.95;;
14738;SDS011;7461;52.440;13.540;2023-01-24T10:32:43;37.95;;;33.90;;
14738;SDS011;7461;52.440;13.540;2023-01-24T10:35:12;35.70;;;31.92;;
14738;SDS011;7461;52.440;13.540;2023-01-24T10:37:42;41.65;;;33.33;;
14738;SDS011;7461;52.440;13.540;2023-01-24T10:40:11;38.15;;;33.92;;
14738;SDS011;7461;52.440;13.540;2023-01-24T10:42:40;38.10;;;32.15;;
14738;SDS011;7461;52.440;13.540;2023-01-24T10:45:18;37.35;;;33.30;;
14738;SDS011;7461;52.440;13.540;2023-01-24T10:47:50;42.83;;;33.13;;
14738;SDS011;7461;52.440;13.540;2023-01-24T10:50:21;37.50;;;31.58;;
14738;SDS011;7461;52.440;13.540;2023-01-24T10:52:49;40.00;;;34.08;;
14738;SDS011;7461;52.440;13.540;2023-01-24T10:55:25;41.75;;;37.42;;
14738;SDS011;7461;52.440;13.540;2023-01-24T10:57:53;37.47;;;33.42;;
14738;SDS011;7461;52.440;13.540;2023-01-24T11:00:25;38.22;;;33.45;;
14738;SDS011;7461;52.440;13.540;2023-01-24T11:02:57;42.08;;;33.28;;
14738;SDS011;7461;52.440;13.540;2023-01-24T11:05:25;36.78;;;32.95;;
14738;SDS011;7461;52.440;13.540;2023-01-24T11:08:01;40.67;;;33.05;;
14738;SDS011;7461;52.440;13.540;2023-01-24T11:10:30;38.40;;;34.45;;
14738;SDS011;7461;52.440;13.540;2023-01-24T11:13:01;36.53;;;32.63;;
14738;SDS011;7461;52.440;13.540;2023-01-24T11:15:30;41.50;;;37.08;;
14738;SDS011;7461;52.440;13.540;2023-01-24T11:17:59;36.00;;;32.35;;
14738;SDS011;7461;52.440;13.540;2023-01-24T11:20:32;38.72;;;34.67;;
14738;SDS011;7461;52.440;13.540;2023-01-24T11:23:01;39.58;;;33.22;;
14738;SDS011;7461;52.440;13.540;2023-01-24T11:25:28;37.50;;;33.05;;
14738;SDS011;7461;52.440;13.540;2023-01-24T11:27:56;35.33;;;31.80;;
14738;SDS011;7461;52.440;13.540;2023-01-24T11:30:25;35.65;;;32.30;;
14738;SDS011;7461;52.440;13.540;2023-01-24T11:33:07;37.42;;;33.92;;
14738;SDS011;7461;52.440;13.540;2023-01-24T11:35:40;38.47;;;34.65;;
14738;SDS011;7461;52.440;13.540;2023-01-24T11:38:15;36.47;;;32.78;;
14738;SDS011;7461;52.440;13.540;2023-01-24T11:40:44;36.03;;;32.40;;
14738;SDS011;7461;52.440;13.540;2023-01-24T11:43:20;37.58;;;33.90;;
14738;SDS011;7461;52.440;13.540;2023-01-24T11:45:54;38.05;;;34.40;;
14738;SDS011;7461;52.440;13.540;2023-01-24T11:48:27;37.53;;;33.63;;
14738;SDS011;7461;52.440;13.540;2023-01-24T11:51:00;34.20;;;30.98;;
14738;SDS011;7461;52.440;13.540;2023-01-24T11:53:38;33.70;;;30.58;;
14738;SDS011;7461;52.440;13.540;2023-01-24T11:56:14;37.03;;;32.90;;
14738;SDS011;7461;52.440;13.540;2023-01-24T11:58:52;38.00;;;33.92;;
14738;SDS011;7461;52.440;13.540;2023-01-24T12:01:25;38.67;;;34.70;;
14738;SDS011;7461;52.440;13.540;2023-01-24T12:04:11;36.95;;;33.08;;
14738;SDS011;7461;52.440;13.540;2023-01-24T12:06:44;35.67;;;31.95;;
14738;SDS011;7461;52.440;13.540;2023-01-24T12:09:16;37.50;;;33.58;;
14738;SDS011;7461;52.440;13.540;2023-01-24T12:11:46;36.95;;;32.50;;
14738;SDS011;7461;52.440;13.540;2023-01-24T12:14:20;36.95;;;32.90;;
14738;SDS011;7461;52.440;13.540;2023-01-24T12:16:55;39.47;;;34.45;;
14738;SDS011;7461;52.440;13.540;2023-01-24T12:19:37;39.65;;;35.40;;
14738;SDS011;7461;52.440;13.540;2023-01-24T12:22:09;36.75;;;32.90;;
14738;SDS011;7461;52.440;13.540;2023-01-24T12:24:37;39.38;;;35.13;;
14738;SDS011;7461;52.440;13.540;2023-01-24T12:27:09;35.28;;;31.65;;
14738;SDS011;7461;52.440;13.540;2023-01-24T12:29:41;37.95;;;33.88;;
14738;SDS011;7461;52.440;13.540;2023-01-24T12:32:11;36.80;;;33.03;;
14738;SDS011;7461;52.440;13.540;2023-01-24T12:34:44;37.33;;;33.63;;
14738;SDS011;7461;52.440;13.540;2023-01-24T12:37:14;38.75;;;34.75;;
14738;SDS011;7461;52.440;13.540;2023-01-24T12:39:46;40.10;;;35.90;;
14738;SDS011;7461;52.440;13.540;2023-01-24T12:42:17;42.17;;;34.53;;
14738;SDS011;7461;52.440;13.540;2023-01-24T12:44:47;38.90;;;35.00;;
14738;SDS011;7461;52.440;13.540;2023-01-24T12:47:27;41.38;;;36.63;;
14738;SDS011;7461;52.440;13.540;2023-01-24T12:50:07;40.05;;;35.75;;
14738;SDS011;7461;52.440;13.540;2023-01-24T12:52:39;33.35;;;30.05;;
14738;SDS011;7461;52.440;13.540;2023-01-24T12:55:08;39.55;;;35.40;;
14738;SDS011;7461;52.440;13.540;2023-01-24T12:57:37;37.80;;;33.78;;
14738;SDS011;7461;52.440;13.540;2023-01-24T13:00:12;40.90;;;35.22;;
14738;SDS011;7461;52.440;13.540;2023-01-24T13:02:54;42.75;;;33.63;;
14738;SDS011;7461;52.440;13.540;2023-01-24T13:05:30;39.03;;;34.30;;
14738;SDS011;7461;52.440;13.540;2023-01-24T13:08:02;44.42;;;36.05;;
14738;SDS011;7461;52.440;13.540;2023-01-24T13:10:37;41.65;;;32.30;;
14738;SDS011;7461;52.440;13.540;2023-01-24T13:13:07;37.40;;;33.40;;
14738;SDS011;7461;52.440;13.540;2023-01-24T13:15:41;38.92;;;34.92;;
14738;SDS011;7461;52.440;13.540;2023-01-24T13:18:15;39.08;;;34.85;;
14738;SDS011;7461;52.440;13.540;2023-01-24T13:20:51;37.65;;;34.05;;
14738;SDS011;7461;52.440;13.540;2023-01-24T13:23:27;38.42;;;33.97;;
14738;SDS011;7461;52.440;13.540;2023-01-24T13:26:16;35.90;;;32.08;;
14738;SDS011;7461;52.440;13.540;2023-01-24T13:28:52;34.28;;;30.45;;
14738;SDS011;7461;52.440;13.540;2023-01-24T13:31:25;36.75;;;33.20;;
14738;SDS011;7461;52.440;13.540;2023-01-24T13:33:56;39.85;;;34.47;;
14738;SDS011;7461;52.440;13.540;2023-01-24T13:36:26;41.45;;;34.28;;
14738;SDS011;7461;52.440;13.540;2023-01-24T13:38:55;41.80;;;37.10;;
14738;SDS011;7461;52.440;13.540;2023-01-24T13:41:33;37.70;;;33.85;;
14738;SDS011;7461;52.440;13.540;2023-01-24T13:44:00;40.53;;;34.13;;
14738;SDS011;7461;52.440;13.540;2023-01-24T13:49:16;39.85;;;35.60;;
14738;SDS011;7461;52.440;13.540;2023-01-24T13:51:48;39.03;;;34.85;;
14738;SDS011;7461;52.440;13.540;2023-01-24T13:54:19;36.47;;;32.00;;
14738;SDS011;7461;52.440;13.540;2023-01-24T13:59:36;43.67;;;34.55;;
14738;SDS011;7461;52.440;13.540;2023-01-24T14:04:46;36.63;;;32.85;;
14738;SDS011;7461;52.440;13.540;2023-01-24T14:07:17;35.22;;;31.15;;
14738;SDS011;7461;52.440;13.540;2023-01-24T14:09:45;38.20;;;33.05;;
14738;SDS011;7461;52.440;13.540;2023-01-24T14:12:14;37.22;;;33.22;;
14738;SDS011;7461;52.440;13.540;2023-01-24T14:17:44;38.80;;;32.50;;
14738;SDS011;7461;52.440;13.540;2023-01-24T14:20:17;33.90;;;30.25;;
14738;SDS011;7461;52.440;13.540;2023-01-24T14:22:50;41.50;;;33.08;;
14738;SDS011;7461;52.440;13.540;2023-01-24T14:28:11;34.47;;;28.83;;
14738;SDS011;7461;52.440;13.540;2023-01-24T14:30:42;39.58;;;32.70;;
14738;SDS011;7461;52.440;13.540;2023-01-24T14:33:17;35.58;;;31.83;;
14738;SDS011;7461;52.440;13.540;2023-01-24T14:35:56;39.03;;;32.92;;
14738;SDS011;7461;52.440;13.540;2023-01-24T14:38:26;47.13;;;36.50;;
14738;SDS011;7461;52.440;13.540;2023-01-24T14:40:53;38.00;;;34.15;;
14738;SDS011;7461;52.440;13.540;2023-01-24T14:43:23;40.00;;;35.67;;
14738;SDS011;7461;52.440;13.540;2023-01-24T14:45:50;40.78;;;34.42;;
14738;SDS011;7461;52.440;13.540;2023-01-24T14:48:19;36.75;;;32.95;;
14738;SDS011;7461;52.440;13.540;2023-01-24T14:50:55;42.00;;;33.50;;
14738;SDS011;7461;52.440;13.540;2023-01-24T14:53:23;40.88;;;36.78;;